createdAt,value
2023-04-16T08:00:37.359Z,3.73
2023-04-16T08:03:06.943Z,3.20
2023-04-16T08:05:36.148Z,3.63
2023-04-16T08:08:23.695Z,3.67
2023-04-16T08:10:56.183Z,6.28
2023-04-16T08:13:25.701Z,11.40
2023-04-16T08:15:56.291Z,3.80
2023-04-16T08:18:25.678Z,2.83
2023-04-16T08:20:54.786Z,3.13
2023-04-16T08:23:23.927Z,3.10
2023-04-16T08:26:11.958Z,6.03
2023-04-16T08:28:41.067Z,3.75
2023-04-16T08:31:11.713Z,1.77
2023-04-16T08:33:42.201Z,5.72
2023-04-16T08:36:28.732Z,3.20
2023-04-16T08:38:57.874Z,6.10
2023-04-16T08:41:45.819Z,7.45
2023-04-16T08:44:22.543Z,4.50
2023-04-16T08:46:57.764Z,2.63
2023-04-16T08:49:27.796Z,8.02
2023-04-16T08:51:58.041Z,11.00
2023-04-16T08:54:36.562Z,4.90
2023-04-16T08:57:25.851Z,4.82
2023-04-16T08:59:56.655Z,5.15
2023-04-16T09:02:46.126Z,8.55
2023-04-16T09:05:34.717Z,12.40
2023-04-16T09:08:21.034Z,5.40
2023-04-16T09:10:50.911Z,6.18
2023-04-16T09:13:21.030Z,3.20
2023-04-16T09:16:09.570Z,17.75
2023-04-16T09:19:15.330Z,8.60
2023-04-16T09:22:04.484Z,9.95
2023-04-16T09:24:34.307Z,8.13
2023-04-16T09:27:04.269Z,8.95
2023-04-16T09:29:37.876Z,9.07
2023-04-16T09:32:08.330Z,5.85
2023-04-16T09:34:58.019Z,5.43
2023-04-16T09:37:28.095Z,6.15
2023-04-16T09:39:59.110Z,6.50
2023-04-16T09:42:30.023Z,5.85
2023-04-16T09:45:01.310Z,4.43
2023-04-16T09:47:42.575Z,8.02
2023-04-16T09:50:18.598Z,8.95
2023-04-16T09:52:51.194Z,5.32
2023-04-16T09:55:25.628Z,4.70
2023-04-16T09:58:01.408Z,5.40
2023-04-16T10:00:49.570Z,6.65
2023-04-16T10:03:18.753Z,2.53
2023-04-16T10:05:49.486Z,7.45
2023-04-16T10:08:19.252Z,5.07
2023-04-16T10:10:48.496Z,11.43
2023-04-16T10:13:19.586Z,5.18
2023-04-16T10:15:49.835Z,8.75
2023-04-16T10:18:19.891Z,4.40
2023-04-16T10:20:50.866Z,6.53
2023-04-16T10:23:21.328Z,3.65
2023-04-16T10:26:25.501Z,9.05
2023-04-16T10:29:14.078Z,4.17
2023-04-16T10:31:44.022Z,6.88
2023-04-16T10:34:13.149Z,9.40
2023-04-16T10:37:02.342Z,7.72
2023-04-16T10:39:31.483Z,7.80
2023-04-16T10:42:10.969Z,7.90
2023-04-16T10:44:44.424Z,5.20
2023-04-16T10:47:15.673Z,5.07
2023-04-16T10:49:50.037Z,2.22
2023-04-16T10:52:22.841Z,7.15
2023-04-16T10:54:56.118Z,6.93
2023-04-16T10:57:25.196Z,6.75
2023-04-16T11:00:13.786Z,9.10
2023-04-16T11:02:44.171Z,5.45
2023-04-16T11:05:15.082Z,5.30
2023-04-16T11:07:50.831Z,5.35
2023-04-16T11:10:36.868Z,4.75
2023-04-16T11:13:25.973Z,3.38
2023-04-16T11:15:59.669Z,3.42
2023-04-16T11:18:29.260Z,8.65
2023-04-16T11:21:02.222Z,10.15
2023-04-16T11:23:32.846Z,6.78
2023-04-16T11:26:02.452Z,7.80
2023-04-16T11:28:36.302Z,7.68
2023-04-16T11:31:13.662Z,7.60
2023-04-16T11:33:44.295Z,6.28
2023-04-16T11:36:13.428Z,4.55
2023-04-16T11:39:05.553Z,5.70
2023-04-16T11:41:34.808Z,14.35
2023-04-16T11:44:36.400Z,8.95
2023-04-16T11:47:08.672Z,6.05
2023-04-16T11:49:44.115Z,6.47
2023-04-16T11:52:13.363Z,2.58
2023-04-16T11:54:43.954Z,7.93
2023-04-16T11:57:13.788Z,8.85
2023-04-16T12:00:02.314Z,4.40
2023-04-16T12:02:40.451Z,8.75
2023-04-16T12:05:45.129Z,5.47
2023-04-16T12:08:30.382Z,5.80
2023-04-16T12:11:19.212Z,9.32
2023-04-16T12:14:26.475Z,6.45
2023-04-16T12:16:55.700Z,5.82
2023-04-16T12:19:43.274Z,6.55
2023-04-16T12:22:18.000Z,9.77
2023-04-16T12:25:05.501Z,9.73
2023-04-16T12:27:53.768Z,7.70
2023-04-16T12:30:24.831Z,7.18
2023-04-16T12:33:12.449Z,6.43
2023-04-16T12:35:42.412Z,5.72
2023-04-16T12:38:28.607Z,10.00
2023-04-16T12:40:58.773Z,5.15
2023-04-16T12:43:31.091Z,7.63
2023-04-16T12:46:01.671Z,8.65
2023-04-16T12:48:32.826Z,15.80
2023-04-16T12:51:19.167Z,7.95
2023-04-16T12:54:06.271Z,9.35
2023-04-16T12:56:36.247Z,7.88
2023-04-16T12:59:06.970Z,5.28
2023-04-16T13:01:53.328Z,5.93
2023-04-16T13:04:41.061Z,4.25
2023-04-16T13:07:12.669Z,3.80
2023-04-16T13:09:41.905Z,5.28
2023-04-16T13:12:28.286Z,7.95
2023-04-16T13:14:59.062Z,13.45
2023-04-16T13:17:28.282Z,11.98
2023-04-16T13:19:57.461Z,8.73
2023-04-16T13:23:03.834Z,5.88
2023-04-16T13:25:33.136Z,9.93
2023-04-16T13:28:02.302Z,9.73
2023-04-16T13:30:51.334Z,6.78
2023-04-16T13:33:37.501Z,10.45
2023-04-16T13:36:27.490Z,15.68
2023-04-16T13:38:56.880Z,12.73
2023-04-16T13:41:27.911Z,7.13
2023-04-16T13:43:57.028Z,8.20
2023-04-16T13:46:27.709Z,7.43
2023-04-16T13:49:17.033Z,7.00
2023-04-16T13:51:46.269Z,6.85
2023-04-16T13:54:52.022Z,8.35
2023-04-16T13:57:21.570Z,10.63
2023-04-16T13:59:50.788Z,11.00
2023-04-16T14:02:23.988Z,17.35
2023-04-16T14:04:53.169Z,19.95
2023-04-16T14:07:26.146Z,15.65
2023-04-16T14:09:55.457Z,15.20
2023-04-16T14:12:42.983Z,11.32
2023-04-16T14:15:15.074Z,12.20
2023-04-16T14:17:46.329Z,14.10
2023-04-16T14:20:16.341Z,8.88
2023-04-16T14:22:47.051Z,13.18
2023-04-16T14:25:22.322Z,10.95
2023-04-16T14:28:12.244Z,9.45
2023-04-16T14:30:51.771Z,16.75
2023-04-16T14:33:24.665Z,16.83
2023-04-16T14:35:56.431Z,29.35
2023-04-16T14:38:26.560Z,54.92
2023-04-16T14:41:17.291Z,66.80
2023-04-16T14:43:49.287Z,72.90
2023-04-16T14:46:18.954Z,75.75
2023-04-16T14:48:52.612Z,70.40
2023-04-16T14:51:39.105Z,66.40
2023-04-16T14:54:08.353Z,59.47
2023-04-16T14:56:37.552Z,46.30
2023-04-16T14:59:25.003Z,36.58
2023-04-16T15:01:55.058Z,23.00
2023-04-16T15:04:46.693Z,25.98
2023-04-16T15:07:34.296Z,18.75
2023-04-16T15:10:39.077Z,15.95
2023-04-16T15:13:08.207Z,17.40
2023-04-16T15:15:38.067Z,12.02
2023-04-16T15:18:10.341Z,11.68
2023-04-16T15:20:43.052Z,30.42
2023-04-16T15:23:13.724Z,15.50
2023-04-16T15:25:42.887Z,18.90
2023-04-16T15:28:15.118Z,13.27
2023-04-16T15:31:02.962Z,14.90
2023-04-16T15:33:32.286Z,19.98
2023-04-16T15:36:02.861Z,50.72
2023-04-16T15:38:32.150Z,12.13
2023-04-16T15:41:03.530Z,13.18
2023-04-16T15:43:32.703Z,11.35
2023-04-16T15:46:37.438Z,19.42
2023-04-16T15:49:06.917Z,18.60
2023-04-16T15:51:37.495Z,20.85
2023-04-16T15:54:06.873Z,18.67
2023-04-16T15:56:56.212Z,21.25
2023-04-16T15:59:25.327Z,20.90
2023-04-16T16:02:31.599Z,19.20
2023-04-16T16:05:01.406Z,17.50
2023-04-16T16:07:32.133Z,22.42
2023-04-16T16:10:18.285Z,42.08
2023-04-16T16:12:49.702Z,21.70
2023-04-16T16:15:18.853Z,18.27
2023-04-16T16:17:50.678Z,18.10
2023-04-16T16:20:31.897Z,19.42
2023-04-16T16:23:02.866Z,15.07
2023-04-16T16:25:31.940Z,14.40
2023-04-16T16:28:00.972Z,10.68
2023-04-16T16:30:30.177Z,20.58
2023-04-16T16:33:17.559Z,13.35
2023-04-16T16:35:50.530Z,16.45
2023-04-16T16:38:21.340Z,15.18
2023-04-16T16:41:07.403Z,14.15
2023-04-16T16:43:37.664Z,13.40
2023-04-16T16:46:08.003Z,13.45
2023-04-16T16:48:37.177Z,9.82
2023-04-16T16:51:23.627Z,9.65
2023-04-16T16:53:54.872Z,8.43
2023-04-16T16:56:24.060Z,18.45
2023-04-16T16:59:14.035Z,9.52
2023-04-16T17:02:00.026Z,12.90
2023-04-16T17:04:29.443Z,13.93
2023-04-16T17:06:58.835Z,16.67
2023-04-16T17:09:31.830Z,16.20
2023-04-16T17:12:01.303Z,17.38
2023-04-16T17:14:30.604Z,11.23
2023-04-16T17:17:02.770Z,14.20
2023-04-16T17:19:32.106Z,10.95
2023-04-16T17:22:03.316Z,12.65
2023-04-16T17:24:34.109Z,12.73
2023-04-16T17:27:21.974Z,18.60
2023-04-16T17:30:11.821Z,17.98
2023-04-16T17:32:41.198Z,13.40
2023-04-16T17:35:11.472Z,12.57
2023-04-16T17:38:01.321Z,13.55
2023-04-16T17:40:32.213Z,13.43
2023-04-16T17:43:01.446Z,13.27
2023-04-16T17:45:30.622Z,9.88
2023-04-16T17:47:59.950Z,14.18
2023-04-16T17:50:29.362Z,15.77
2023-04-16T17:53:03.950Z,17.20
2023-04-16T17:55:34.737Z,17.05
2023-04-16T17:58:04.747Z,16.88
2023-04-16T18:00:34.003Z,18.35
2023-04-16T18:03:03.359Z,21.98
2023-04-16T18:05:33.067Z,18.40
2023-04-16T18:08:20.860Z,19.58
2023-04-16T18:10:51.687Z,20.08
2023-04-16T18:13:21.015Z,23.30
2023-04-16T18:15:50.285Z,22.10
2023-04-16T18:18:37.436Z,18.48
2023-04-16T18:21:23.749Z,18.10
2023-04-16T18:24:11.621Z,20.40
2023-04-16T18:26:46.101Z,16.90
2023-04-16T18:29:17.826Z,22.52
2023-04-16T18:31:47.604Z,16.80
2023-04-16T18:34:16.994Z,13.95
2023-04-16T18:36:46.203Z,19.58
2023-04-16T18:39:34.436Z,17.90
2023-04-16T18:42:23.985Z,11.20
2023-04-16T18:44:54.222Z,16.13
2023-04-16T18:47:23.590Z,13.68
2023-04-16T18:49:52.984Z,12.52
2023-04-16T18:52:22.300Z,9.05
2023-04-16T18:54:51.650Z,14.70
2023-04-16T18:57:22.392Z,13.73
2023-04-16T19:00:13.061Z,10.30
2023-04-16T19:03:00.568Z,14.55
2023-04-16T19:05:29.913Z,14.40
2023-04-16T19:07:59.592Z,15.30
2023-04-16T19:10:28.985Z,15.93
2023-04-16T19:12:59.998Z,15.20
2023-04-16T19:15:31.190Z,13.90
2023-04-16T19:18:02.126Z,10.73
2023-04-16T19:20:31.430Z,8.98
2023-04-16T19:23:00.649Z,12.45
2023-04-16T19:25:46.648Z,11.15
2023-04-16T19:28:17.512Z,9.95
2023-04-16T19:30:47.172Z,13.95
2023-04-16T19:33:16.452Z,12.05
2023-04-16T19:35:45.816Z,11.77
2023-04-16T19:38:15.306Z,12.40
2023-04-16T19:40:47.087Z,13.35
2023-04-16T19:43:17.848Z,8.40
2023-04-16T19:45:47.322Z,12.18
2023-04-16T19:48:16.794Z,9.93
2023-04-16T19:51:03.132Z,9.45
2023-04-16T19:53:49.166Z,6.68
2023-04-16T19:56:18.469Z,14.13
2023-04-16T19:58:49.293Z,12.07
2023-04-16T20:01:53.276Z,12.02
2023-04-16T20:04:22.723Z,10.50
2023-04-16T20:06:52.112Z,8.48
2023-04-16T20:09:21.580Z,10.23
2023-04-16T20:11:51.074Z,9.75
2023-04-16T20:14:40.570Z,9.48
2023-04-16T20:17:28.375Z,14.07
2023-04-16T20:20:01.262Z,10.93
2023-04-16T20:22:30.596Z,8.23
2023-04-16T20:24:59.913Z,7.30
2023-04-16T20:27:29.333Z,10.68
2023-04-16T20:30:00.371Z,9.30
2023-04-16T20:32:30.048Z,11.85
2023-04-16T20:35:17.339Z,10.68
2023-04-16T20:37:47.048Z,10.77
2023-04-16T20:40:16.934Z,12.32
2023-04-16T20:42:47.876Z,9.93
2023-04-16T20:45:19.014Z,12.88
2023-04-16T20:48:06.450Z,7.72
2023-04-16T20:50:35.761Z,7.40
2023-04-16T20:53:23.121Z,8.77
2023-04-16T20:55:52.383Z,10.30
2023-04-16T20:58:21.565Z,11.63
2023-04-16T21:00:56.015Z,9.85
2023-04-16T21:03:25.477Z,17.10
2023-04-16T21:05:57.104Z,10.52
2023-04-16T21:08:26.570Z,9.32
2023-04-16T21:10:55.957Z,10.18
2023-04-16T21:13:42.645Z,8.77
2023-04-16T21:16:32.021Z,12.00
2023-04-16T21:19:01.442Z,8.55
2023-04-16T21:21:30.828Z,7.90
2023-04-16T21:24:00.545Z,10.52
2023-04-16T21:26:29.890Z,12.63
2023-04-16T21:28:59.205Z,8.52
2023-04-16T21:31:30.134Z,9.20
2023-04-16T21:33:59.505Z,9.02
2023-04-16T21:36:29.687Z,8.18
2023-04-16T21:38:58.927Z,7.82
2023-04-16T21:41:28.316Z,8.35
2023-04-16T21:44:16.747Z,12.18
2023-04-16T21:47:06.036Z,11.45
2023-04-16T21:49:35.354Z,12.18
2023-04-16T21:52:04.627Z,14.10
2023-04-16T21:54:33.945Z,7.38
2023-04-16T21:57:21.581Z,7.70
2023-04-16T21:59:50.910Z,14.60
2023-04-16T22:02:40.113Z,12.05
2023-04-16T22:05:27.703Z,11.05
2023-04-16T22:07:57.167Z,10.38
2023-04-16T22:10:26.522Z,12.15
2023-04-16T22:13:14.377Z,12.88
2023-04-16T22:16:03.101Z,11.77
2023-04-16T22:18:52.438Z,8.50
2023-04-16T22:21:21.730Z,10.23
2023-04-16T22:24:08.183Z,13.25
2023-04-16T22:26:37.493Z,9.93
2023-04-16T22:29:06.979Z,12.68
2023-04-16T22:31:36.554Z,9.45
2023-04-16T22:34:07.451Z,12.35
2023-04-16T22:36:54.618Z,12.63
2023-04-16T22:39:59.223Z,15.60
2023-04-16T22:42:29.062Z,17.23
2023-04-16T22:45:15.599Z,18.23
2023-04-16T22:47:44.965Z,19.10
2023-04-16T22:50:15.800Z,18.75
2023-04-16T22:52:45.152Z,18.00
2023-04-16T22:55:32.572Z,11.95
2023-04-16T22:58:01.866Z,10.95
2023-04-16T23:00:31.134Z,12.30
2023-04-16T23:03:00.538Z,8.68
2023-04-16T23:05:31.795Z,15.02
2023-04-16T23:08:01.574Z,15.48
2023-04-16T23:10:30.900Z,15.93
2023-04-16T23:13:18.385Z,14.63
2023-04-16T23:15:47.799Z,13.90
2023-04-16T23:18:17.374Z,8.57
2023-04-16T23:20:48.145Z,10.23
2023-04-16T23:23:17.460Z,9.90
2023-04-16T23:25:46.908Z,7.57
2023-04-16T23:28:16.278Z,7.78
2023-04-16T23:30:45.636Z,13.50
2023-04-16T23:33:33.460Z,16.25
2023-04-16T23:36:04.216Z,8.73
2023-04-16T23:38:51.587Z,13.88
2023-04-16T23:41:20.959Z,12.90
2023-04-16T23:43:50.245Z,18.70
2023-04-16T23:46:19.543Z,25.23
2023-04-16T23:49:06.691Z,39.10
2023-04-16T23:51:55.347Z,41.30
2023-04-16T23:54:24.756Z,39.35
2023-04-16T23:56:53.972Z,32.33
2023-04-16T23:59:23.335Z,27.40
